Akhmat_kadyrov — UINU — position and weather

sailwx.info

Track history (hours):
 
Tides and Currents Weather Stations Pressure Air Temp Water Temp Dewpoint Dewpoint Depression Visibility Wind Speed Wind Dir Waves Ship Positions

Akhmat_kadyrov

Last reported at 2018-May-19 23:32 UTC. Time now 2018-May-23 03:29 UTC.
Position N 45°33' E 036°48'.

Length 139 m; draft 2.8 m.

Type: Cargo ship. MMSI: 273372000.

Date/timePositionNaut miles runAvg speedWind from/ knotsBaromVisibWave heightAir tempDewpointWater temp
2018-May-19 23:32N 45°33' E 036°48'1 7.5
2018-May-19 23:22N 45°32' E 036°47'3 7.3
2018-May-19 23:00N 45°30' E 036°44'4 7.3
2018-May-19 22:30N 45°27' E 036°42'4 7.2
2018-May-19 22:00N 45°23' E 036°41'3 6.2
2018-May-19 21:30N 45°21' E 036°38'3 6.6
2018-May-19 21:00N 45°19' E 036°34'3 6.8
2018-May-19 20:30N 45°18' E 036°29'4 6.6
2018-May-19 19:58N 45°15' E 036°28'4 6.2
2018-May-19 19:15N 45°10' E 036°29'2 7.1
2018-May-19 18:56N 45°08' E 036°30'3 7.1
2018-May-19 18:27N 45°04' E 036°30'3 7.1
2018-May-19 18:00N 45°01' E 036°31'  
Track history (hours):
 
Tides and Currents Weather Stations Pressure Air Temp Water Temp Dewpoint Dewpoint Depression Visibility Wind Speed Wind Dir Waves Ship Positions

Akhmat_kadyrov

Last reported at 2018-May-19 23:32 UTC. Time now 2018-May-23 03:29 UTC.
Position N 45°33' E 036°48'.

Length 139 m; draft 2.8 m.

Type: Cargo ship. MMSI: 273372000.

Date/timePositionNaut miles runAvg speedWind from/ knotsBaromVisibWave heightAir tempDewpointWater temp
2018-May-19 23:32N 45°33' E 036°48'1 7.5
2018-May-19 23:22N 45°32' E 036°47'3 7.3
2018-May-19 23:00N 45°30' E 036°44'4 7.3
2018-May-19 22:30N 45°27' E 036°42'4 7.2
2018-May-19 22:00N 45°23' E 036°41'3 6.2
2018-May-19 21:30N 45°21' E 036°38'3 6.6
2018-May-19 21:00N 45°19' E 036°34'3 6.8
2018-May-19 20:30N 45°18' E 036°29'4 6.6
2018-May-19 19:58N 45°15' E 036°28'4 6.2
2018-May-19 19:15N 45°10' E 036°29'2 7.1
2018-May-19 18:56N 45°08' E 036°30'3 7.1
2018-May-19 18:27N 45°04' E 036°30'3 7.1
2018-May-19 18:00N 45°01' E 036°31'  

Dump ship's entire track history